Pagrindinis puslapis
METAR-TAF:

METAR-TAF

Oro uostai :

Incirlik, Turkija

platuma: 37-00N, ilguma: 035-25E, Aukštis: 73 m

Dabartinis oras

Ataskaita buvo paskelbta 17 minutes, ne 07:20 UTC
Vėjas 9 kt iš Šiaurės/Šiaurės Rytų
Temperatūra 15°C
Drėgmė 31%
Slėgis 1019 hPa
Matomumas 10 km arba daugiau
nėra debesų žemiau 1500 m ir nėra kamuolinių lietaus debesų

METAR: LTAG 020720Z 03009KT CAVOK 15/M02 Q1019 NOSIG RMK SKC

Laikas: 10:37 (07:37 UTC)

Prognozė

Ataskaita buvo paskelbta 2 valandos ir 57 minutes, ne 04:40 UTC
Prognozė galioja nuo 02 metu 06 UTC su 03 metu 06 UTC
Vėjas 2 kt nuo kintamojo kryptimis
Matomumas 10 km arba daugiau
nėra debesų žemiau 1500 m ir nėra kamuolinių lietaus debesų

TAF: LTAG 020440Z 0206/0306 VRB02KT CAVOK

Orai ataskaitas ir orų prognozės (METAR, TAF).

turimą stotys yra geltonos ir raudonos taškus žemėlapyje.

Perkelti pele per norėdami pamatyti stoties vardą.

Tada spustelėkite, norėdami matyti oro stebėjimo ir prognozės.

Norėdami pakeisti žemėlapį: spustelėkite ant žalios mygtukų su juodo kryžiaus žemyn,; žalią mygtuką su brūkšneliu, jei norite nutolinti; arba žalių rodyklių gretimoms žemėlapius.


METAR-TAF: